sensor_id;sensor_type;location;lat;lon;timestamp;pressure;altitude;pressure_sealevel;temperature;humidity
56402;BME280;42299;35.160;26.100;2022-08-20T00:01:06;100265.66;;;27.93;51.65
56402;BME280;42299;35.160;26.100;2022-08-20T00:02:37;100260.22;;;27.93;51.57
56402;BME280;42299;35.160;26.100;2022-08-20T00:04:00;100261.97;;;27.94;51.57
56402;BME280;42299;35.160;26.100;2022-08-20T00:05:23;100259.28;;;27.94;51.55
56402;BME280;42299;35.160;26.100;2022-08-20T00:06:46;100271.19;;;27.91;51.56
56402;BME280;42299;35.160;26.100;2022-08-20T00:08:09;100257.59;;;27.91;51.68
56402;BME280;42299;35.160;26.100;2022-08-20T00:09:30;100263.44;;;27.85;51.88
56402;BME280;42299;35.160;26.100;2022-08-20T00:10:55;100258.00;;;27.85;51.84
56402;BME280;42299;35.160;26.100;2022-08-20T00:12:17;100262.56;;;27.85;51.72
56402;BME280;42299;35.160;26.100;2022-08-20T00:13:43;100265.28;;;27.85;51.75
56402;BME280;42299;35.160;26.100;2022-08-20T00:15:06;100254.50;;;27.83;51.69
56402;BME280;42299;35.160;26.100;2022-08-20T00:16:28;100259.28;;;27.80;51.75
56402;BME280;42299;35.160;26.100;2022-08-20T00:17:52;100253.06;;;27.77;51.75
56402;BME280;42299;35.160;26.100;2022-08-20T00:19:14;100252.09;;;27.79;51.61
56402;BME280;42299;35.160;26.100;2022-08-20T00:20:40;100248.41;;;27.80;51.46
56402;BME280;42299;35.160;26.100;2022-08-20T00:22:02;100265.56;;;27.80;51.22
56402;BME280;42299;35.160;26.100;2022-08-20T00:23:25;100257.44;;;27.80;51.10
56402;BME280;42299;35.160;26.100;2022-08-20T00:24:48;100248.34;;;27.81;51.03
56402;BME280;42299;35.160;26.100;2022-08-20T00:26:10;100258.31;;;27.81;50.99
56402;BME280;42299;35.160;26.100;2022-08-20T00:27:34;100257.44;;;27.80;51.02
56402;BME280;42299;35.160;26.100;2022-08-20T00:28:56;100251.13;;;27.80;51.00
56402;BME280;42299;35.160;26.100;2022-08-20T00:30:20;100248.34;;;27.81;50.96
56402;BME280;42299;35.160;26.100;2022-08-20T00:31:41;100253.84;;;27.80;51.04
56402;BME280;42299;35.160;26.100;2022-08-20T00:33:05;100256.56;;;27.80;50.99
56402;BME280;42299;35.160;26.100;2022-08-20T00:34:27;100247.47;;;27.81;50.96
56402;BME280;42299;35.160;26.100;2022-08-20T00:35:53;100241.25;;;27.79;51.19
56402;BME280;42299;35.160;26.100;2022-08-20T00:37:16;100243.88;;;27.80;50.87
56402;BME280;42299;35.160;26.100;2022-08-20T00:38:40;100252.00;;;27.80;50.94
56402;BME280;42299;35.160;26.100;2022-08-20T00:40:05;100251.13;;;27.80;50.93
56402;BME280;42299;35.160;26.100;2022-08-20T00:41:28;100258.41;;;27.79;50.92
56402;BME280;42299;35.160;26.100;2022-08-20T00:42:53;100238.44;;;27.80;50.96
56402;BME280;42299;35.160;26.100;2022-08-20T00:44:20;100254.72;;;27.80;50.95
56402;BME280;42299;35.160;26.100;2022-08-20T00:45:43;100253.84;;;27.80;51.04
56402;BME280;42299;35.160;26.100;2022-08-20T00:47:06;100258.41;;;27.79;51.07
56402;BME280;42299;35.160;26.100;2022-08-20T00:48:32;100245.72;;;27.80;51.25
56402;BME280;42299;35.160;26.100;2022-08-20T00:49:53;100257.44;;;27.80;51.00
56402;BME280;42299;35.160;26.100;2022-08-20T00:51:23;100244.75;;;27.81;51.03
56402;BME280;42299;35.160;26.100;2022-08-20T00:52:48;100248.34;;;27.81;50.95
56402;BME280;42299;35.160;26.100;2022-08-20T00:54:15;100247.47;;;27.81;50.88
56402;BME280;42299;35.160;26.100;2022-08-20T00:55:40;100251.13;;;27.80;51.14
56402;BME280;42299;35.160;26.100;2022-08-20T00:57:06;100249.38;;;27.79;51.23
56402;BME280;42299;35.160;26.100;2022-08-20T00:58:31;100259.28;;;27.80;51.27
56402;BME280;42299;35.160;26.100;2022-08-20T00:59:54;100257.44;;;27.80;51.21
56402;BME280;42299;35.160;26.100;2022-08-20T01:01:18;100257.53;;;27.79;51.31
56402;BME280;42299;35.160;26.100;2022-08-20T01:02:42;100261.19;;;27.77;51.33
56402;BME280;42299;35.160;26.100;2022-08-20T01:04:06;100268.47;;;27.77;51.50
56402;BME280;42299;35.160;26.100;2022-08-20T01:05:30;100255.91;;;27.76;51.48
56402;BME280;42299;35.160;26.100;2022-08-20T01:06:53;100256.00;;;27.74;51.61
56402;BME280;42299;35.160;26.100;2022-08-20T01:08:18;100256.00;;;27.74;51.42
56402;BME280;42299;35.160;26.100;2022-08-20T01:09:40;100246.97;;;27.74;51.52
56402;BME280;42299;35.160;26.100;2022-08-20T01:11:03;100246.09;;;27.73;51.34
56402;BME280;42299;35.160;26.100;2022-08-20T01:12:30;100255.19;;;27.72;51.29
56402;BME280;42299;35.160;26.100;2022-08-20T01:13:52;100247.94;;;27.73;50.99
56402;BME280;42299;35.160;26.100;2022-08-20T01:15:18;100245.13;;;27.74;51.03
56402;BME280;42299;35.160;26.100;2022-08-20T01:16:43;100247.94;;;27.73;50.95
56402;BME280;42299;35.160;26.100;2022-08-20T01:18:10;100250.66;;;27.73;50.94
56402;BME280;42299;35.160;26.100;2022-08-20T01:19:36;100250.75;;;27.71;51.02
56402;BME280;42299;35.160;26.100;2022-08-20T01:21:01;100247.28;;;27.69;51.09
56402;BME280;42299;35.160;26.100;2022-08-20T01:22:31;100248.25;;;27.68;51.24
56402;BME280;42299;35.160;26.100;2022-08-20T01:24:19;100248.34;;;27.67;51.33
56402;BME280;42299;35.160;26.100;2022-08-20T01:25:48;100246.59;;;27.66;51.51
56402;BME280;42299;35.160;26.100;2022-08-20T01:27:12;100247.53;;;27.65;51.43
56402;BME280;42299;35.160;26.100;2022-08-20T01:28:39;100250.25;;;27.65;51.68
56402;BME280;42299;35.160;26.100;2022-08-20T01:30:04;100251.22;;;27.64;51.69
56402;BME280;42299;35.160;26.100;2022-08-20T01:31:27;100248.41;;;27.65;51.77
56402;BME280;42299;35.160;26.100;2022-08-20T01:32:50;100256.56;;;27.65;51.86
56402;BME280;42299;35.160;26.100;2022-08-20T01:34:15;100256.47;;;27.67;51.94
56402;BME280;42299;35.160;26.100;2022-08-20T01:35:39;100248.34;;;27.67;51.76
56402;BME280;42299;35.160;26.100;2022-08-20T01:37:02;100249.22;;;27.67;51.79
56402;BME280;42299;35.160;26.100;2022-08-20T01:38:26;100250.09;;;27.68;51.77
56402;BME280;42299;35.160;26.100;2022-08-20T01:39:47;100248.25;;;27.68;51.67
56402;BME280;42299;35.160;26.100;2022-08-20T01:41:19;100246.59;;;27.66;51.83
56402;BME280;42299;35.160;26.100;2022-08-20T01:42:45;100250.25;;;27.65;51.93
56402;BME280;42299;35.160;26.100;2022-08-20T01:44:10;100249.59;;;27.61;52.01
56402;BME280;42299;35.160;26.100;2022-08-20T01:45:32;100255.97;;;27.60;52.29
56402;BME280;42299;35.160;26.100;2022-08-20T01:46:56;100246.09;;;27.59;52.19
56402;BME280;42299;35.160;26.100;2022-08-20T01:48:20;100253.44;;;27.57;52.33
56402;BME280;42299;35.160;26.100;2022-08-20T01:49:45;100257.16;;;27.56;52.44
56402;BME280;42299;35.160;26.100;2022-08-20T01:51:15;100258.88;;;27.57;52.60
56402;BME280;42299;35.160;26.100;2022-08-20T01:52:42;100247.06;;;27.58;52.51
56402;BME280;42299;35.160;26.100;2022-08-20T01:54:07;100249.78;;;27.58;52.64
56402;BME280;42299;35.160;26.100;2022-08-20T01:55:30;100259.66;;;27.59;52.53
56402;BME280;42299;35.160;26.100;2022-08-20T01:56:56;100246.09;;;27.59;52.42
56402;BME280;42299;35.160;26.100;2022-08-20T01:58:19;100253.44;;;27.57;52.40
56402;BME280;42299;35.160;26.100;2022-08-20T01:59:41;100245.44;;;27.56;52.50
56402;BME280;42299;35.160;26.100;2022-08-20T02:01:04;100247.28;;;27.55;52.49
56402;BME280;42299;35.160;26.100;2022-08-20T02:02:25;100248.22;;;27.54;52.25
56402;BME280;42299;35.160;26.100;2022-08-20T02:03:48;100251.91;;;27.53;52.39
56402;BME280;42299;35.160;26.100;2022-08-20T02:05:09;100248.59;;;27.48;52.55
56402;BME280;42299;35.160;26.100;2022-08-20T02:06:39;100251.28;;;27.48;52.47
56402;BME280;42299;35.160;26.100;2022-08-20T02:08:03;100254.88;;;27.49;52.59
56402;BME280;42299;35.160;26.100;2022-08-20T02:09:28;100254.97;;;27.47;52.48
56402;BME280;42299;35.160;26.100;2022-08-20T02:10:51;100259.59;;;27.45;52.57
56402;BME280;42299;35.160;26.100;2022-08-20T02:12:14;100259.59;;;27.45;52.60
56402;BME280;42299;35.160;26.100;2022-08-20T02:13:37;100254.19;;;27.45;52.78
56402;BME280;42299;35.160;26.100;2022-08-20T02:15:00;100253.31;;;27.45;52.88
56402;BME280;42299;35.160;26.100;2022-08-20T02:16:25;100252.44;;;27.44;52.97
56402;BME280;42299;35.160;26.100;2022-08-20T02:17:49;100249.84;;;27.43;52.80
56402;BME280;42299;35.160;26.100;2022-08-20T02:19:14;100244.44;;;27.43;53.02
56402;BME280;42299;35.160;26.100;2022-08-20T02:20:38;100248.19;;;27.40;53.13
56402;BME280;42299;35.160;26.100;2022-08-20T02:22:13;100253.59;;;27.40;53.09
56402;BME280;42299;35.160;26.100;2022-08-20T02:23:36;100251.94;;;27.37;53.13
56402;BME280;42299;35.160;26.100;2022-08-20T02:24:59;100261.75;;;27.40;53.09
56402;BME280;42299;35.160;26.100;2022-08-20T02:26:22;100250.03;;;27.40;53.06
56402;BME280;42299;35.160;26.100;2022-08-20T02:27:46;100258.16;;;27.40;52.94
56402;BME280;42299;35.160;26.100;2022-08-20T02:29:09;100260.00;;;27.39;53.04
56402;BME280;42299;35.160;26.100;2022-08-20T02:30:34;100249.22;;;27.37;53.10
56402;BME280;42299;35.160;26.100;2022-08-20T02:31:56;100242.84;;;27.38;53.18
56402;BME280;42299;35.160;26.100;2022-08-20T02:33:20;100241.81;;;27.41;53.08
56402;BME280;42299;35.160;26.100;2022-08-20T02:34:42;100239.00;;;27.43;53.15
56402;BME280;42299;35.160;26.100;2022-08-20T02:36:05;100243.47;;;27.44;53.04
56402;BME280;42299;35.160;26.100;2022-08-20T02:37:28;100237.91;;;27.45;53.14
56402;BME280;42299;35.160;26.100;2022-08-20T02:38:50;100237.81;;;27.47;53.04
56402;BME280;42299;35.160;26.100;2022-08-20T02:40:15;100233.28;;;27.47;53.01
56402;BME280;42299;35.160;26.100;2022-08-20T02:41:38;100232.41;;;27.47;52.89
56402;BME280;42299;35.160;26.100;2022-08-20T02:43:03;100241.41;;;27.47;52.95
56402;BME280;42299;35.160;26.100;2022-08-20T02:44:26;100245.97;;;27.47;53.04
56402;BME280;42299;35.160;26.100;2022-08-20T02:45:48;100245.09;;;27.46;52.77
56402;BME280;42299;35.160;26.100;2022-08-20T02:47:11;100241.59;;;27.44;52.80
56402;BME280;42299;35.160;26.100;2022-08-20T02:48:32;100248.00;;;27.43;53.05
56402;BME280;42299;35.160;26.100;2022-08-20T02:49:55;100248.00;;;27.43;52.90
56402;BME280;42299;35.160;26.100;2022-08-20T02:51:17;100251.69;;;27.42;52.78
56402;BME280;42299;35.160;26.100;2022-08-20T02:52:40;100250.72;;;27.43;52.72
56402;BME280;42299;35.160;26.100;2022-08-20T02:54:02;100250.72;;;27.43;52.83
56402;BME280;42299;35.160;26.100;2022-08-20T02:55:24;100252.66;;;27.41;52.73
56402;BME280;42299;35.160;26.100;2022-08-20T02:56:46;100239.19;;;27.40;52.74
56402;BME280;42299;35.160;26.100;2022-08-20T02:58:10;100244.69;;;27.38;52.68
56402;BME280;42299;35.160;26.100;2022-08-20T02:59:32;100241.97;;;27.38;52.67
56402;BME280;42299;35.160;26.100;2022-08-20T03:00:54;100247.41;;;27.38;52.49
56402;BME280;42299;35.160;26.100;2022-08-20T03:02:17;100249.94;;;27.41;52.46
56402;BME280;42299;35.160;26.100;2022-08-20T03:03:40;100257.03;;;27.44;52.19
56402;BME280;42299;35.160;26.100;2022-08-20T03:05:03;100258.72;;;27.45;52.06
56402;BME280;42299;35.160;26.100;2022-08-20T03:06:24;100258.84;;;27.43;52.09
56402;BME280;42299;35.160;26.100;2022-08-20T03:07:50;100262.44;;;27.44;52.23
56402;BME280;42299;35.160;26.100;2022-08-20T03:09:13;100267.75;;;27.45;52.16
56402;BME280;42299;35.160;26.100;2022-08-20T03:10:38;100267.66;;;27.47;52.25
56402;BME280;42299;35.160;26.100;2022-08-20T03:11:59;100261.34;;;27.46;52.38
56402;BME280;42299;35.160;26.100;2022-08-20T03:13:24;100264.16;;;27.45;52.49
56402;BME280;42299;35.160;26.100;2022-08-20T03:14:46;100264.28;;;27.43;52.55
56402;BME280;42299;35.160;26.100;2022-08-20T03:16:08;100267.88;;;27.44;52.57
56402;BME280;42299;35.160;26.100;2022-08-20T03:17:31;100266.00;;;27.44;52.51
56402;BME280;42299;35.160;26.100;2022-08-20T03:18:52;100267.66;;;27.47;52.57
56402;BME280;42299;35.160;26.100;2022-08-20T03:20:15;100264.84;;;27.48;52.34
56402;BME280;42299;35.160;26.100;2022-08-20T03:21:36;100270.28;;;27.48;52.43
56402;BME280;42299;35.160;26.100;2022-08-20T03:22:59;100272.13;;;27.48;52.41
56402;BME280;42299;35.160;26.100;2022-08-20T03:24:20;100257.69;;;27.47;52.39
56402;BME280;42299;35.160;26.100;2022-08-20T03:25:43;100260.41;;;27.47;52.30
56402;BME280;42299;35.160;26.100;2022-08-20T03:27:04;100257.59;;;27.49;52.38
56402;BME280;42299;35.160;26.100;2022-08-20T03:28:28;100261.06;;;27.51;52.15
56402;BME280;42299;35.160;26.100;2022-08-20T03:29:51;100262.94;;;27.50;52.24
56402;BME280;42299;35.160;26.100;2022-08-20T03:31:13;100261.19;;;27.49;52.13
56402;BME280;42299;35.160;26.100;2022-08-20T03:32:35;100256.81;;;27.47;52.23
56402;BME280;42299;35.160;26.100;2022-08-20T03:33:58;100273.97;;;27.47;52.27
56402;BME280;42299;35.160;26.100;2022-08-20T03:35:23;100267.66;;;27.47;52.27
56402;BME280;42299;35.160;26.100;2022-08-20T03:36:45;100277.63;;;27.46;52.33
56402;BME280;42299;35.160;26.100;2022-08-20T03:38:09;100276.00;;;27.44;52.41
56402;BME280;42299;35.160;26.100;2022-08-20T03:39:30;100284.88;;;27.46;52.47
56402;BME280;42299;35.160;26.100;2022-08-20T03:40:53;100281.22;;;27.47;52.41
56402;BME280;42299;35.160;26.100;2022-08-20T03:42:15;100287.50;;;27.47;52.41
56402;BME280;42299;35.160;26.100;2022-08-20T03:43:38;100279.47;;;27.46;52.47
56402;BME280;42299;35.160;26.100;2022-08-20T03:45:01;100276.00;;;27.44;52.61
56402;BME280;42299;35.160;26.100;2022-08-20T03:46:23;100281.44;;;27.44;52.66
56402;BME280;42299;35.160;26.100;2022-08-20T03:47:47;100283.25;;;27.43;52.80
56402;BME280;42299;35.160;26.100;2022-08-20T03:49:09;100295.75;;;27.46;52.87
56402;BME280;42299;35.160;26.100;2022-08-20T03:50:32;100292.94;;;27.47;52.84
56402;BME280;42299;35.160;26.100;2022-08-20T03:51:54;100297.41;;;27.48;53.02
56402;BME280;42299;35.160;26.100;2022-08-20T03:53:17;100297.41;;;27.48;52.94
56402;BME280;42299;35.160;26.100;2022-08-20T03:54:40;100299.16;;;27.49;53.04
56402;BME280;42299;35.160;26.100;2022-08-20T03:56:03;100305.34;;;27.51;53.05
56402;BME280;42299;35.160;26.100;2022-08-20T03:57:26;100299.69;;;27.56;53.11
56402;BME280;42299;35.160;26.100;2022-08-20T03:58:49;100298.72;;;27.57;53.06
56402;BME280;42299;35.160;26.100;2022-08-20T04:00:14;100292.91;;;27.63;52.95
56402;BME280;42299;35.160;26.100;2022-08-20T04:01:36;100297.06;;;27.68;52.91
56402;BME280;42299;35.160;26.100;2022-08-20T04:02:58;100300.34;;;27.73;52.88
56402;BME280;42299;35.160;26.100;2022-08-20T04:04:21;100301.72;;;27.81;52.80
56402;BME280;42299;35.160;26.100;2022-08-20T04:05:44;100300.47;;;27.86;52.87
56402;BME280;42299;35.160;26.100;2022-08-20T04:07:10;100299.19;;;27.92;52.70
56402;BME280;42299;35.160;26.100;2022-08-20T04:08:33;100300.63;;;27.97;52.78
56402;BME280;42299;35.160;26.100;2022-08-20T04:09:56;100297.66;;;28.02;52.69
56402;BME280;42299;35.160;26.100;2022-08-20T04:11:17;100293.56;;;28.09;52.60
56402;BME280;42299;35.160;26.100;2022-08-20T04:12:40;100296.91;;;28.14;52.34
56402;BME280;42299;35.160;26.100;2022-08-20T04:14:04;100300.97;;;28.21;52.29
56402;BME280;42299;35.160;26.100;2022-08-20T04:15:26;100304.03;;;28.29;52.15
56402;BME280;42299;35.160;26.100;2022-08-20T04:16:48;100298.09;;;28.37;52.06
56402;BME280;42299;35.160;26.100;2022-08-20T04:18:12;100305.75;;;28.44;51.94
56402;BME280;42299;35.160;26.100;2022-08-20T04:19:35;100299.91;;;28.50;51.92
56402;BME280;42299;35.160;26.100;2022-08-20T04:20:56;100305.72;;;28.59;51.65
56402;BME280;42299;35.160;26.100;2022-08-20T04:22:19;100305.13;;;28.68;51.45
56402;BME280;42299;35.160;26.100;2022-08-20T04:23:41;100296.38;;;28.77;51.30
56402;BME280;42299;35.160;26.100;2022-08-20T04:25:03;100303.91;;;28.86;51.09
56402;BME280;42299;35.160;26.100;2022-08-20T04:26:26;100308.69;;;28.95;50.90
56402;BME280;42299;35.160;26.100;2022-08-20T04:27:48;100303.63;;;29.03;50.97
56402;BME280;42299;35.160;26.100;2022-08-20T04:29:13;100316.50;;;29.14;50.76
56402;BME280;42299;35.160;26.100;2022-08-20T04:30:34;100305.84;;;29.23;50.66
56402;BME280;42299;35.160;26.100;2022-08-20T04:31:57;100323.19;;;29.35;50.40
56402;BME280;42299;35.160;26.100;2022-08-20T04:33:20;100314.31;;;29.46;49.93
56402;BME280;42299;35.160;26.100;2022-08-20T04:34:43;100314.63;;;29.54;49.64
56402;BME280;42299;35.160;26.100;2022-08-20T04:36:06;100298.63;;;29.62;49.34
56402;BME280;42299;35.160;26.100;2022-08-20T04:37:27;100314.31;;;29.71;49.31
56402;BME280;42299;35.160;26.100;2022-08-20T04:38:51;100317.38;;;29.79;48.65
56402;BME280;42299;35.160;26.100;2022-08-20T04:40:14;100318.53;;;29.88;48.67
56402;BME280;42299;35.160;26.100;2022-08-20T04:41:54;100306.94;;;29.98;48.42
56402;BME280;42299;35.160;26.100;2022-08-20T04:43:17;100306.25;;;30.07;47.97
56402;BME280;42299;35.160;26.100;2022-08-20T04:44:41;100316.38;;;30.18;47.55
56402;BME280;42299;35.160;26.100;2022-08-20T04:46:06;100305.66;;;30.28;47.29
56402;BME280;42299;35.160;26.100;2022-08-20T04:47:29;100311.09;;;30.40;47.02
56402;BME280;42299;35.160;26.100;2022-08-20T04:48:52;100307.72;;;30.49;46.65
56402;BME280;42299;35.160;26.100;2022-08-20T04:50:17;100305.16;;;30.59;46.76
56402;BME280;42299;35.160;26.100;2022-08-20T04:51:40;100306.34;;;30.68;46.20
56402;BME280;42299;35.160;26.100;2022-08-20T04:53:03;100315.69;;;30.76;46.31
56402;BME280;42299;35.160;26.100;2022-08-20T04:54:25;100310.28;;;30.87;45.94
56402;BME280;42299;35.160;26.100;2022-08-20T04:55:47;100317.41;;;31.01;45.90
56402;BME280;42299;35.160;26.100;2022-08-20T04:57:09;100318.50;;;31.11;45.59
56402;BME280;42299;35.160;26.100;2022-08-20T04:58:34;100323.63;;;31.27;45.42
56402;BME280;42299;35.160;26.100;2022-08-20T04:59:57;100314.38;;;31.41;45.19
56402;BME280;42299;35.160;26.100;2022-08-20T05:01:19;100315.03;;;31.55;44.94
56402;BME280;42299;35.160;26.100;2022-08-20T05:02:43;100307.53;;;31.70;44.82
56402;BME280;42299;35.160;26.100;2022-08-20T05:04:04;100309.38;;;31.81;44.12
56402;BME280;42299;35.160;26.100;2022-08-20T05:05:27;100300.47;;;31.90;43.92
56402;BME280;42299;35.160;26.100;2022-08-20T05:06:48;100299.09;;;31.95;43.93
56402;BME280;42299;35.160;26.100;2022-08-20T05:08:11;100291.78;;;32.07;43.85
56402;BME280;42299;35.160;26.100;2022-08-20T05:09:33;100296.66;;;32.15;43.56
56402;BME280;42299;35.160;26.100;2022-08-20T05:10:56;100290.56;;;32.22;43.51
56402;BME280;42299;35.160;26.100;2022-08-20T05:12:19;100299.13;;;32.29;42.83
56402;BME280;42299;35.160;26.100;2022-08-20T05:13:40;100296.59;;;32.37;42.69
56402;BME280;42299;35.160;26.100;2022-08-20T05:15:05;100297.19;;;32.52;42.63
56402;BME280;42299;35.160;26.100;2022-08-20T05:16:28;100300.78;;;32.63;42.18
56402;BME280;42299;35.160;26.100;2022-08-20T05:17:58;100300.41;;;32.79;42.10
56402;BME280;42299;35.160;26.100;2022-08-20T05:19:20;100291.03;;;32.93;41.79
56402;BME280;42299;35.160;26.100;2022-08-20T05:20:43;100299.81;;;33.07;41.31
56402;BME280;42299;35.160;26.100;2022-08-20T05:22:05;100305.34;;;33.17;41.04
56402;BME280;42299;35.160;26.100;2022-08-20T05:23:28;100299.56;;;33.31;40.72
56402;BME280;42299;35.160;26.100;2022-08-20T05:24:50;100298.38;;;33.45;40.46
56402;BME280;42299;35.160;26.100;2022-08-20T05:26:13;100309.25;;;33.56;40.08
56402;BME280;42299;35.160;26.100;2022-08-20T05:27:36;100303.56;;;33.69;40.14
56402;BME280;42299;35.160;26.100;2022-08-20T05:28:57;100302.50;;;33.81;39.95
56402;BME280;42299;35.160;26.100;2022-08-20T05:30:21;100310.25;;;33.96;39.64
56402;BME280;42299;35.160;26.100;2022-08-20T05:31:43;100311.19;;;34.07;39.69
56402;BME280;42299;35.160;26.100;2022-08-20T05:33:07;100309.81;;;34.22;39.17
56402;BME280;42299;35.160;26.100;2022-08-20T05:34:30;100324.56;;;34.30;38.86
56402;BME280;42299;35.160;26.100;2022-08-20T05:35:53;100309.28;;;34.37;38.64
56402;BME280;42299;35.160;26.100;2022-08-20T05:37:15;100307.44;;;34.48;38.31
56402;BME280;42299;35.160;26.100;2022-08-20T05:38:37;100314.09;;;34.55;38.20
56402;BME280;42299;35.160;26.100;2022-08-20T05:40:00;100318.63;;;34.65;38.01
56402;BME280;42299;35.160;26.100;2022-08-20T05:41:24;100316.91;;;34.74;38.01
56402;BME280;42299;35.160;26.100;2022-08-20T05:42:48;100329.91;;;34.82;37.87
56402;BME280;42299;35.160;26.100;2022-08-20T05:44:13;100322.72;;;34.90;37.82
56402;BME280;42299;35.160;26.100;2022-08-20T05:45:38;100320.41;;;34.95;37.63
56402;BME280;42299;35.160;26.100;2022-08-20T05:47:00;100323.59;;;35.00;37.40
56402;BME280;42299;35.160;26.100;2022-08-20T05:48:24;100322.00;;;35.07;37.38
56402;BME280;42299;35.160;26.100;2022-08-20T05:49:46;100316.25;;;35.10;37.08
56402;BME280;42299;35.160;26.100;2022-08-20T05:51:09;100326.22;;;35.11;37.05
56402;BME280;42299;35.160;26.100;2022-08-20T05:52:31;100321.56;;;35.12;36.89
56402;BME280;42299;35.160;26.100;2022-08-20T05:53:53;100305.25;;;35.10;36.93
56402;BME280;42299;35.160;26.100;2022-08-20T05:55:16;100317.81;;;35.13;36.80
56402;BME280;42299;35.160;26.100;2022-08-20T05:56:39;100328.22;;;35.19;36.79
56402;BME280;42299;35.160;26.100;2022-08-20T05:58:04;100319.28;;;35.27;36.68
56402;BME280;42299;35.160;26.100;2022-08-20T05:59:27;100315.69;;;35.36;36.65
56402;BME280;42299;35.160;26.100;2022-08-20T06:00:52;100324.03;;;35.53;36.39
56402;BME280;42299;35.160;26.100;2022-08-20T06:02:15;100323.84;;;35.65;36.17
56402;BME280;42299;35.160;26.100;2022-08-20T06:03:55;100318.69;;;35.62;36.22
56402;BME280;42299;35.160;26.100;2022-08-20T06:05:35;100324.16;;;35.62;36.14
56402;BME280;42299;35.160;26.100;2022-08-20T06:07:02;100314.63;;;35.75;36.03
56402;BME280;42299;35.160;26.100;2022-08-20T06:08:25;100303.03;;;35.81;35.96
56402;BME280;42299;35.160;26.100;2022-08-20T06:09:49;100301.75;;;35.76;35.79
56402;BME280;42299;35.160;26.100;2022-08-20T06:11:12;100305.06;;;35.79;35.85
56402;BME280;42299;35.160;26.100;2022-08-20T06:12:33;100300.69;;;35.86;35.80
56402;BME280;42299;35.160;26.100;2022-08-20T06:13:56;100304.59;;;35.93;35.56
56402;BME280;42299;35.160;26.100;2022-08-20T06:15:19;100306.47;;;35.93;35.41
56402;BME280;42299;35.160;26.100;2022-08-20T06:16:43;100318.19;;;35.95;35.41
56402;BME280;42299;35.160;26.100;2022-08-20T06:18:08;100322.06;;;36.02;35.54
56402;BME280;42299;35.160;26.100;2022-08-20T06:19:32;100318.13;;;36.14;35.42
56402;BME280;42299;35.160;26.100;2022-08-20T06:20:54;100329.81;;;36.26;35.16
56402;BME280;42299;35.160;26.100;2022-08-20T06:22:17;100320.56;;;36.27;34.97
56402;BME280;42299;35.160;26.100;2022-08-20T06:23:40;100326.44;;;36.32;34.90
56402;BME280;42299;35.160;26.100;2022-08-20T06:25:02;100331.75;;;36.43;35.03
56402;BME280;42299;35.160;26.100;2022-08-20T06:26:25;100330.44;;;36.47;34.75
56402;BME280;42299;35.160;26.100;2022-08-20T06:27:46;100332.22;;;36.39;34.88
56402;BME280;42299;35.160;26.100;2022-08-20T06:29:08;100330.59;;;36.46;34.80
56402;BME280;42299;35.160;26.100;2022-08-20T06:30:31;100327.53;;;36.49;34.07
56402;BME280;42299;35.160;26.100;2022-08-20T06:31:55;100322.34;;;36.46;34.07
56402;BME280;42299;35.160;26.100;2022-08-20T06:33:18;100337.25;;;36.43;33.83
56402;BME280;42299;35.160;26.100;2022-08-20T06:34:41;100338.09;;;36.44;33.99
56402;BME280;42299;35.160;26.100;2022-08-20T06:36:04;100333.72;;;36.51;34.01
56402;BME280;42299;35.160;26.100;2022-08-20T06:37:28;100333.84;;;36.59;34.04
56402;BME280;42299;35.160;26.100;2022-08-20T06:38:51;100339.91;;;36.62;34.05
56402;BME280;42299;35.160;26.100;2022-08-20T06:40:16;100334.25;;;36.64;34.29
56402;BME280;42299;35.160;26.100;2022-08-20T06:41:37;100334.16;;;36.56;33.65
56402;BME280;42299;35.160;26.100;2022-08-20T06:43:00;100349.13;;;36.44;33.16
56402;BME280;42299;35.160;26.100;2022-08-20T06:44:23;100335.97;;;36.38;33.59
56402;BME280;42299;35.160;26.100;2022-08-20T06:45:48;100344.66;;;36.43;33.58
56402;BME280;42299;35.160;26.100;2022-08-20T06:47:12;100339.09;;;36.52;33.17
56402;BME280;42299;35.160;26.100;2022-08-20T06:48:34;100348.75;;;36.56;32.87
56402;BME280;42299;35.160;26.100;2022-08-20T06:49:57;100342.81;;;36.61;32.58
56402;BME280;42299;35.160;26.100;2022-08-20T06:51:18;100342.09;;;36.68;32.27
56402;BME280;42299;35.160;26.100;2022-08-20T06:52:41;100342.63;;;36.72;32.01
56402;BME280;42299;35.160;26.100;2022-08-20T06:54:03;100350.63;;;36.65;32.21
56402;BME280;42299;35.160;26.100;2022-08-20T06:55:26;100346.72;;;36.68;31.92
56402;BME280;42299;35.160;26.100;2022-08-20T06:56:50;100352.03;;;36.69;31.41
56402;BME280;42299;35.160;26.100;2022-08-20T06:58:14;100335.56;;;36.60;31.41
56402;BME280;42299;35.160;26.100;2022-08-20T06:59:36;100343.84;;;36.60;31.64
56402;BME280;42299;35.160;26.100;2022-08-20T07:00:59;100357.00;;;36.56;32.01
56402;BME280;42299;35.160;26.100;2022-08-20T07:02:23;100347.59;;;36.59;32.19
56402;BME280;42299;35.160;26.100;2022-08-20T07:03:47;100352.22;;;36.58;32.28
56402;BME280;42299;35.160;26.100;2022-08-20T07:05:11;100353.09;;;36.59;32.20
56402;BME280;42299;35.160;26.100;2022-08-20T07:06:34;100354.97;;;36.58;32.33
56402;BME280;42299;35.160;26.100;2022-08-20T07:07:56;100355.13;;;36.66;32.58
56402;BME280;42299;35.160;26.100;2022-08-20T07:09:20;100353.25;;;36.67;32.31
56402;BME280;42299;35.160;26.100;2022-08-20T07:10:42;100351.94;;;36.61;32.54
56402;BME280;42299;35.160;26.100;2022-08-20T07:12:05;100356.56;;;36.61;32.78